createdAt,value
2019-03-22T00:02:34.764Z,5.30
2019-03-22T00:05:39.213Z,5.28
2019-03-22T00:08:43.652Z,5.19
2019-03-22T00:11:48.073Z,5.29
2019-03-22T00:14:52.568Z,5.28
2019-03-22T00:17:56.950Z,5.18
2019-03-22T00:21:01.713Z,5.11
2019-03-22T00:24:06.446Z,4.99
2019-03-22T00:27:16.367Z,5.28
2019-03-22T00:30:17.447Z,5.33
2019-03-22T00:33:21.886Z,5.09
2019-03-22T00:36:26.596Z,4.93
2019-03-22T00:39:31.041Z,4.82
2019-03-22T00:42:35.482Z,4.78
2019-03-22T00:45:39.921Z,4.60
2019-03-22T00:48:44.699Z,4.64
2019-03-22T00:51:49.130Z,4.62
2019-03-22T00:54:53.573Z,4.79
2019-03-22T00:57:57.997Z,4.63
2019-03-22T01:01:02.435Z,4.60
2019-03-22T01:04:06.875Z,4.53
2019-03-22T01:07:11.774Z,4.53
2019-03-22T01:10:16.270Z,4.54
2019-03-22T01:13:20.702Z,4.57
2019-03-22T01:16:25.142Z,4.54
2019-03-22T01:19:29.639Z,4.41
2019-03-22T01:22:34.015Z,4.30
2019-03-22T01:25:38.451Z,4.41
2019-03-22T01:28:43.127Z,4.39
2019-03-22T01:31:47.855Z,4.35
2019-03-22T01:34:52.595Z,4.47
2019-03-22T01:37:57.326Z,4.39
2019-03-22T01:41:01.760Z,4.24
2019-03-22T01:44:06.482Z,4.15
2019-03-22T01:47:10.923Z,4.06
2019-03-22T01:50:19.172Z,4.01
2019-03-22T01:53:23.597Z,3.94
2019-03-22T01:56:28.367Z,4.06
2019-03-22T01:59:33.095Z,4.28
2019-03-22T02:02:37.528Z,4.22
2019-03-22T02:05:47.726Z,3.92
2019-03-22T02:08:52.529Z,3.79
2019-03-22T02:11:57.245Z,3.71
2019-03-22T02:15:01.977Z,3.69
2019-03-22T02:18:06.701Z,3.66
2019-03-22T02:21:11.437Z,3.64
2019-03-22T02:24:16.169Z,3.53
2019-03-22T02:27:20.594Z,3.51
2019-03-22T02:30:25.026Z,3.42
2019-03-22T02:33:29.462Z,3.43
2019-03-22T02:36:33.900Z,3.38
2019-03-22T02:39:38.389Z,3.48
2019-03-22T02:42:42.944Z,3.43
2019-03-22T02:45:47.854Z,3.41
2019-03-22T02:48:52.275Z,3.44
2019-03-22T02:51:57.004Z,3.48
2019-03-22T02:55:01.460Z,3.64
2019-03-22T02:58:19.872Z,3.59
2019-03-22T03:01:12.182Z,3.45
2019-03-22T03:04:16.617Z,3.46
2019-03-22T03:07:21.370Z,3.48
2019-03-22T03:10:26.312Z,3.40
2019-03-22T03:13:30.736Z,3.35
2019-03-22T03:16:35.765Z,3.32
2019-03-22T03:19:40.443Z,3.48
2019-03-22T03:22:44.946Z,3.64
2019-03-22T03:25:49.370Z,3.45
2019-03-22T03:28:54.261Z,3.33
2019-03-22T03:31:58.701Z,3.25
2019-03-22T03:35:03.156Z,3.26
2019-03-22T03:38:08.068Z,3.52
2019-03-22T03:41:12.998Z,3.40
2019-03-22T03:44:17.428Z,3.23
2019-03-22T03:47:21.977Z,3.09
2019-03-22T03:50:26.397Z,3.06
2019-03-22T03:53:30.829Z,3.03
2019-03-22T03:56:35.288Z,2.95
2019-03-22T03:59:39.704Z,2.83
2019-03-22T04:02:44.890Z,2.90
2019-03-22T04:05:49.633Z,2.85
2019-03-22T04:08:54.070Z,3.07
2019-03-22T04:11:58.778Z,3.10
2019-03-22T04:15:03.470Z,3.28
2019-03-22T04:18:07.908Z,2.98
2019-03-22T04:21:12.346Z,2.84
2019-03-22T04:24:16.788Z,2.80
2019-03-22T04:27:21.229Z,2.84
2019-03-22T04:30:25.663Z,2.85
2019-03-22T04:33:30.102Z,2.77
2019-03-22T04:36:34.876Z,2.64
2019-03-22T04:39:39.316Z,2.68
2019-03-22T04:42:43.764Z,2.71
2019-03-22T04:45:48.831Z,2.84
2019-03-22T04:48:54.154Z,2.78
2019-03-22T04:51:59.118Z,2.70
2019-03-22T04:55:05.306Z,2.67
2019-03-22T04:58:12.308Z,2.73
2019-03-22T05:01:18.469Z,2.78
2019-03-22T05:04:25.585Z,2.60
2019-03-22T05:07:30.894Z,2.63
2019-03-22T05:10:37.262Z,2.71
2019-03-22T05:13:44.334Z,2.62
2019-03-22T05:16:50.947Z,2.88
2019-03-22T05:19:58.121Z,2.86
2019-03-22T05:23:04.374Z,2.73
2019-03-22T05:26:09.733Z,2.77
2019-03-22T05:29:15.118Z,2.55
2019-03-22T05:32:19.607Z,2.71
2019-03-22T05:35:24.053Z,2.53
2019-03-22T05:38:28.742Z,2.63
2019-03-22T05:41:33.173Z,2.50
2019-03-22T05:44:37.899Z,2.37
2019-03-22T05:47:42.349Z,2.39
2019-03-22T05:50:46.777Z,2.49
2019-03-22T05:53:51.472Z,2.57
2019-03-22T05:56:55.911Z,2.67
2019-03-22T06:00:00.354Z,2.70
2019-03-22T06:03:05.163Z,2.79
2019-03-22T06:06:09.596Z,2.90
2019-03-22T06:09:14.037Z,2.99
2019-03-22T06:12:18.463Z,3.04
2019-03-22T06:15:22.903Z,3.17
2019-03-22T06:18:27.337Z,3.50
2019-03-22T06:21:31.783Z,3.68
2019-03-22T06:24:36.532Z,4.10
2019-03-22T06:27:40.966Z,5.26
2019-03-22T06:30:45.791Z,6.46
2019-03-22T06:33:50.222Z,7.63
2019-03-22T06:36:54.943Z,8.94
2019-03-22T06:39:59.678Z,9.95
2019-03-22T06:43:04.405Z,10.16
2019-03-22T06:46:09.132Z,11.59
2019-03-22T06:49:13.574Z,12.84
2019-03-22T06:52:18.022Z,13.58
2019-03-22T06:55:22.473Z,14.31
2019-03-22T06:58:26.915Z,14.53
2019-03-22T07:01:31.770Z,15.09
2019-03-22T07:04:36.493Z,15.51
2019-03-22T07:07:41.232Z,16.10
2019-03-22T07:10:45.667Z,16.98
2019-03-22T07:13:50.378Z,17.22
2019-03-22T07:16:54.851Z,17.54
2019-03-22T07:19:59.354Z,16.00
2019-03-22T07:23:04.058Z,15.64
2019-03-22T07:26:08.786Z,15.40
2019-03-22T07:29:13.232Z,13.89
2019-03-22T07:32:17.691Z,11.69
2019-03-22T07:35:22.485Z,10.77
2019-03-22T07:38:26.918Z,10.30
2019-03-22T07:41:31.626Z,9.89
2019-03-22T07:44:36.358Z,9.26
2019-03-22T07:47:41.089Z,8.81
2019-03-22T07:50:45.819Z,8.97
2019-03-22T07:53:50.254Z,8.99
2019-03-22T07:56:54.971Z,9.18
2019-03-22T07:59:59.410Z,9.37
2019-03-22T08:03:04.123Z,9.38
2019-03-22T08:06:08.575Z,9.41
2019-03-22T08:09:13.001Z,9.52
2019-03-22T08:12:19.491Z,9.27
2019-03-22T08:15:30.063Z,9.22
2019-03-22T08:18:34.741Z,9.24
2019-03-22T08:21:39.213Z,9.40
2019-03-22T08:24:43.647Z,9.57
2019-03-22T08:27:48.060Z,9.74
2019-03-22T08:30:52.868Z,9.81
2019-03-22T08:33:57.575Z,9.70
2019-03-22T08:37:02.012Z,9.95
2019-03-22T08:40:08.169Z,10.13
2019-03-22T08:43:12.611Z,10.03
2019-03-22T08:46:17.058Z,10.08
2019-03-22T08:49:21.878Z,10.40
2019-03-22T08:52:26.504Z,10.51
2019-03-22T08:55:30.941Z,10.64
2019-03-22T08:58:35.410Z,11.04
2019-03-22T09:01:39.819Z,11.56
2019-03-22T09:04:44.581Z,11.81
2019-03-22T09:07:49.091Z,12.06
2019-03-22T09:10:53.554Z,12.47
2019-03-22T09:13:58.565Z,12.38
2019-03-22T09:17:03.042Z,12.51
2019-03-22T09:20:11.701Z,12.86
2019-03-22T09:23:16.159Z,13.43
2019-03-22T09:26:20.595Z,13.96
2019-03-22T09:29:25.303Z,13.62
2019-03-22T09:32:30.022Z,13.34
2019-03-22T09:35:34.465Z,13.20
2019-03-22T09:38:38.991Z,13.20
2019-03-22T09:41:43.409Z,13.36
2019-03-22T09:44:48.910Z,13.73
2019-03-22T09:47:53.618Z,13.78
2019-03-22T09:50:58.357Z,14.01
2019-03-22T09:54:03.060Z,14.20
2019-03-22T09:57:07.977Z,14.11
2019-03-22T10:00:29.153Z,14.06
2019-03-22T10:03:33.549Z,14.42
2019-03-22T10:06:38.266Z,14.35
2019-03-22T10:09:42.684Z,14.39
2019-03-22T10:12:47.136Z,14.74
2019-03-22T10:15:51.924Z,14.67
2019-03-22T10:18:56.378Z,14.88
2019-03-22T10:22:01.087Z,15.28
2019-03-22T10:25:08.047Z,15.52
2019-03-22T10:28:12.790Z,15.78
2019-03-22T10:31:17.237Z,16.00
2019-03-22T10:34:22.104Z,15.91
2019-03-22T10:37:26.904Z,16.40
2019-03-22T10:40:31.660Z,16.85
2019-03-22T10:43:36.409Z,17.32
2019-03-22T10:46:41.176Z,17.01
2019-03-22T10:49:45.989Z,17.02
2019-03-22T10:52:50.448Z,17.33
2019-03-22T10:55:55.162Z,17.77
2019-03-22T10:58:59.895Z,17.36
2019-03-22T11:02:07.679Z,17.77
2019-03-22T11:05:11.303Z,17.98
2019-03-22T11:08:16.039Z,17.66
2019-03-22T11:11:20.482Z,18.33
2019-03-22T11:14:24.935Z,18.83
2019-03-22T11:17:29.379Z,19.01
2019-03-22T11:20:33.873Z,18.90
2019-03-22T11:23:38.334Z,18.95
2019-03-22T11:26:43.085Z,18.90
2019-03-22T11:29:47.812Z,19.12
2019-03-22T11:32:52.544Z,19.39
2019-03-22T11:35:57.000Z,19.33
2019-03-22T11:39:03.897Z,19.63
2019-03-22T11:42:07.667Z,19.76
2019-03-22T11:45:20.460Z,19.89
2019-03-22T11:48:24.897Z,19.82
2019-03-22T11:51:29.753Z,20.28
2019-03-22T11:54:34.466Z,19.78
2019-03-22T11:57:39.298Z,20.07
2019-03-22T12:00:44.024Z,20.25
2019-03-22T12:03:48.493Z,20.56
2019-03-22T12:06:52.945Z,21.05
2019-03-22T12:09:57.709Z,21.00
2019-03-22T12:13:02.152Z,21.00
2019-03-22T12:16:06.966Z,21.33
2019-03-22T12:19:11.408Z,21.50
2019-03-22T12:22:15.870Z,21.67
2019-03-22T12:25:25.791Z,21.63
2019-03-22T12:28:30.604Z,20.78
2019-03-22T12:31:35.054Z,20.27
2019-03-22T12:34:39.516Z,20.43
2019-03-22T12:37:44.595Z,20.73
2019-03-22T12:40:49.046Z,20.59
2019-03-22T12:43:53.736Z,20.86
2019-03-22T12:46:58.480Z,20.85
2019-03-22T12:50:03.209Z,20.56
2019-03-22T12:53:07.939Z,20.89
2019-03-22T12:56:12.398Z,20.96
2019-03-22T12:59:16.839Z,21.24
2019-03-22T13:02:21.632Z,21.65
2019-03-22T13:05:26.857Z,21.73
2019-03-22T13:08:31.273Z,21.87
2019-03-22T13:11:35.726Z,22.00
2019-03-22T13:14:40.436Z,22.21
2019-03-22T13:17:44.882Z,21.97
2019-03-22T13:20:51.092Z,22.14
2019-03-22T13:23:55.955Z,22.45
2019-03-22T13:27:00.401Z,21.83
2019-03-22T13:30:29.581Z,22.15
2019-03-22T13:33:34.315Z,22.44
2019-03-22T13:36:38.757Z,22.46
2019-03-22T13:39:43.469Z,22.38
2019-03-22T13:42:47.921Z,22.71
2019-03-22T13:45:52.368Z,22.88
2019-03-22T13:48:57.195Z,22.84
2019-03-22T13:52:01.611Z,22.73
2019-03-22T13:55:07.768Z,22.93
2019-03-22T13:58:12.213Z,23.09
2019-03-22T14:01:16.996Z,23.58
2019-03-22T14:04:21.726Z,23.27
2019-03-22T14:07:26.459Z,23.70
2019-03-22T14:10:36.316Z,24.14
2019-03-22T14:13:40.754Z,24.07
2019-03-22T14:16:45.212Z,24.53
2019-03-22T14:19:49.646Z,24.26
2019-03-22T14:22:54.418Z,23.69
2019-03-22T14:25:58.862Z,23.19
2019-03-22T14:29:03.312Z,22.82
2019-03-22T14:32:08.501Z,22.91
2019-03-22T14:35:13.239Z,22.78
2019-03-22T14:38:17.675Z,22.30
2019-03-22T14:41:22.395Z,22.11
2019-03-22T14:44:28.273Z,22.27
2019-03-22T14:47:32.844Z,22.32
2019-03-22T14:50:37.284Z,22.01
2019-03-22T14:53:41.730Z,21.67
2019-03-22T14:56:46.555Z,21.55
2019-03-22T14:59:58.541Z,21.49
2019-03-22T15:02:57.757Z,21.52
2019-03-22T15:06:02.488Z,21.55
2019-03-22T15:09:08.272Z,21.65
2019-03-22T15:12:12.802Z,21.81
2019-03-22T15:15:17.007Z,21.96
2019-03-22T15:18:33.289Z,22.06
2019-03-22T15:21:55.751Z,21.92
2019-03-22T15:25:05.944Z,21.71
2019-03-22T15:28:27.231Z,21.43
2019-03-22T15:31:49.655Z,21.34
2019-03-22T15:35:12.193Z,21.13
2019-03-22T15:38:33.525Z,20.99
2019-03-22T15:41:38.355Z,20.90
2019-03-22T15:44:43.089Z,20.81
2019-03-22T15:47:47.817Z,20.55
2019-03-22T15:50:52.551Z,20.31
2019-03-22T15:53:57.277Z,20.21
2019-03-22T15:57:01.912Z,19.84
2019-03-22T16:00:11.245Z,19.31
2019-03-22T16:03:15.985Z,19.17
2019-03-22T16:06:20.562Z,19.22
2019-03-22T16:09:25.015Z,19.24
2019-03-22T16:12:29.762Z,19.12
2019-03-22T16:15:34.493Z,19.08
2019-03-22T16:18:38.940Z,19.03
2019-03-22T16:21:43.649Z,18.98
2019-03-22T16:24:48.381Z,18.94
2019-03-22T16:27:52.824Z,18.83
2019-03-22T16:30:57.267Z,18.73
2019-03-22T16:34:02.059Z,18.72
2019-03-22T16:37:06.502Z,18.65
2019-03-22T16:40:23.657Z,18.58
2019-03-22T16:43:20.295Z,18.40
2019-03-22T16:46:24.733Z,18.33
2019-03-22T16:49:29.192Z,18.27
2019-03-22T16:52:33.637Z,18.21
2019-03-22T16:55:38.097Z,17.99
2019-03-22T16:58:42.555Z,17.73
2019-03-22T17:01:46.994Z,17.71
2019-03-22T17:04:51.832Z,17.69
2019-03-22T17:07:56.276Z,17.62
2019-03-22T17:11:00.979Z,17.47
2019-03-22T17:14:06.008Z,17.30
2019-03-22T17:17:10.553Z,17.05
2019-03-22T17:20:15.342Z,16.76
2019-03-22T17:23:20.112Z,16.64
2019-03-22T17:26:24.846Z,16.50
2019-03-22T17:29:29.287Z,16.39
2019-03-22T17:32:33.991Z,16.33
2019-03-22T17:35:38.730Z,16.26
2019-03-22T17:38:43.180Z,16.09
2019-03-22T17:41:47.618Z,15.90
2019-03-22T17:44:52.405Z,15.72
2019-03-22T17:47:57.137Z,15.29
2019-03-22T17:51:01.858Z,14.90
2019-03-22T17:54:06.310Z,14.48
2019-03-22T17:57:18.395Z,14.44
2019-03-22T18:00:20.631Z,14.24
2019-03-22T18:03:25.389Z,14.20
2019-03-22T18:06:29.849Z,14.17
2019-03-22T18:09:34.300Z,14.02
2019-03-22T18:12:39.067Z,13.95
2019-03-22T18:15:43.805Z,13.82
2019-03-22T18:18:48.561Z,13.70
2019-03-22T18:21:54.595Z,13.63
2019-03-22T18:24:59.105Z,13.51
2019-03-22T18:28:03.551Z,13.17
2019-03-22T18:31:08.274Z,13.06
2019-03-22T18:34:12.749Z,12.90
2019-03-22T18:37:17.529Z,12.62
2019-03-22T18:40:21.977Z,12.42
2019-03-22T18:43:26.689Z,12.28
2019-03-22T18:46:31.145Z,12.09
2019-03-22T18:49:35.601Z,11.97
2019-03-22T18:52:40.041Z,11.89
2019-03-22T18:55:44.790Z,11.93
2019-03-22T18:58:49.521Z,11.84
2019-03-22T19:01:53.969Z,11.70
2019-03-22T19:04:58.684Z,11.62
2019-03-22T19:08:03.402Z,11.66
2019-03-22T19:11:08.138Z,11.77
2019-03-22T19:14:12.870Z,11.58
2019-03-22T19:17:17.318Z,11.48
2019-03-22T19:20:22.017Z,11.57
2019-03-22T19:23:26.458Z,11.40
2019-03-22T19:26:30.910Z,11.36
2019-03-22T19:29:35.710Z,11.32
2019-03-22T19:32:40.430Z,11.21
2019-03-22T19:35:44.883Z,11.12
2019-03-22T19:38:49.328Z,11.09
2019-03-22T19:41:53.778Z,11.13
2019-03-22T19:44:58.536Z,11.12
2019-03-22T19:48:02.985Z,11.12
2019-03-22T19:51:07.433Z,10.97
2019-03-22T19:54:11.876Z,10.93
2019-03-22T19:57:16.638Z,10.62
2019-03-22T20:00:21.575Z,10.54
2019-03-22T20:03:26.310Z,10.37
2019-03-22T20:06:30.753Z,10.29
2019-03-22T20:09:35.206Z,10.11
2019-03-22T20:12:39.647Z,10.00
2019-03-22T20:15:44.104Z,10.06
2019-03-22T20:18:48.537Z,9.93
2019-03-22T20:21:52.993Z,9.98
2019-03-22T20:24:57.442Z,9.88
2019-03-22T20:28:02.304Z,9.87
2019-03-22T20:31:06.752Z,9.96
2019-03-22T20:34:11.191Z,9.83
2019-03-22T20:37:15.626Z,9.68
2019-03-22T20:40:20.598Z,9.57
2019-03-22T20:43:25.046Z,9.46
2019-03-22T20:46:29.491Z,9.45
2019-03-22T20:49:33.919Z,9.41
2019-03-22T20:52:38.371Z,9.44
2019-03-22T20:55:43.142Z,9.50
2019-03-22T20:58:47.584Z,9.50
2019-03-22T21:01:52.300Z,9.43
2019-03-22T21:04:56.722Z,9.27
2019-03-22T21:08:01.166Z,9.32
2019-03-22T21:11:05.972Z,9.18
2019-03-22T21:14:10.398Z,9.14
2019-03-22T21:17:16.247Z,9.12
2019-03-22T21:20:20.877Z,9.09
2019-03-22T21:23:35.740Z,8.97
2019-03-22T21:26:31.477Z,8.91
2019-03-22T21:29:44.144Z,8.97
2019-03-22T21:32:45.602Z,8.93
2019-03-22T21:35:49.660Z,8.87
2019-03-22T21:38:54.111Z,8.87
2019-03-22T21:41:58.814Z,8.80
2019-03-22T21:45:03.954Z,8.75
2019-03-22T21:48:08.683Z,8.63
2019-03-22T21:51:13.107Z,8.64
2019-03-22T21:54:17.547Z,8.59
2019-03-22T21:57:21.990Z,8.51
2019-03-22T22:00:26.420Z,8.33
2019-03-22T22:03:31.110Z,8.28
2019-03-22T22:06:35.544Z,8.23
2019-03-22T22:09:39.992Z,8.18
2019-03-22T22:12:44.684Z,8.11
2019-03-22T22:15:49.130Z,8.12
2019-03-22T22:18:53.841Z,8.10
2019-03-22T22:21:58.286Z,8.19
2019-03-22T22:25:02.986Z,8.00
2019-03-22T22:28:07.729Z,8.12
2019-03-22T22:31:12.161Z,7.95
2019-03-22T22:34:16.601Z,7.89
2019-03-22T22:37:21.035Z,7.84
2019-03-22T22:40:25.722Z,7.84
2019-03-22T22:43:32.881Z,7.82
2019-03-22T22:46:37.442Z,7.69
2019-03-22T22:49:41.889Z,7.55
2019-03-22T22:52:46.596Z,7.40
2019-03-22T22:55:51.325Z,7.48
2019-03-22T22:58:55.774Z,7.36
2019-03-22T23:02:00.483Z,7.30
2019-03-22T23:05:06.458Z,7.37
2019-03-22T23:08:10.895Z,7.29
2019-03-22T23:11:15.507Z,7.21
2019-03-22T23:14:19.949Z,7.51
2019-03-22T23:17:24.648Z,7.72
2019-03-22T23:20:29.095Z,7.48
2019-03-22T23:23:33.530Z,7.33
2019-03-22T23:26:38.227Z,7.26
2019-03-22T23:29:42.952Z,7.27
2019-03-22T23:32:47.688Z,7.16
2019-03-22T23:35:52.130Z,7.20
2019-03-22T23:38:56.587Z,7.25
2019-03-22T23:42:00.999Z,7.31
2019-03-22T23:45:09.264Z,7.34
2019-03-22T23:48:13.694Z,7.15
2019-03-22T23:51:18.130Z,6.96
2019-03-22T23:54:22.847Z,6.97
2019-03-22T23:57:27.286Z,6.83
